createdAt,value
2022-09-02T00:00:08.470Z,55.44
2022-09-02T00:02:36.478Z,55.30
2022-09-02T00:05:05.040Z,55.78
2022-09-02T00:07:32.862Z,55.64
2022-09-02T00:10:00.718Z,55.88
2022-09-02T00:12:28.511Z,55.96
2022-09-02T00:14:57.610Z,55.97
2022-09-02T00:17:25.342Z,56.33
2022-09-02T00:19:56.245Z,56.84
2022-09-02T00:22:24.545Z,57.11
2022-09-02T00:24:52.567Z,57.46
2022-09-02T00:27:20.832Z,57.49
2022-09-02T00:29:48.635Z,57.48
2022-09-02T00:32:17.848Z,57.56
2022-09-02T00:34:45.791Z,57.69
2022-09-02T00:37:13.908Z,58.01
2022-09-02T00:39:41.842Z,58.31
2022-09-02T00:42:09.666Z,58.44
2022-09-02T00:44:37.417Z,58.56
2022-09-02T00:47:05.316Z,58.81
2022-09-02T00:49:37.080Z,59.23
2022-09-02T00:52:08.972Z,58.98
2022-09-02T00:54:42.234Z,59.42
2022-09-02T00:57:15.716Z,59.46
2022-09-02T00:59:49.611Z,59.65
2022-09-02T01:02:18.145Z,59.64
2022-09-02T01:04:47.896Z,59.80
2022-09-02T01:07:16.052Z,59.43
2022-09-02T01:09:43.812Z,59.83
2022-09-02T01:12:14.043Z,60.05
2022-09-02T01:14:41.972Z,60.21
2022-09-02T01:17:10.357Z,60.10
2022-09-02T01:19:41.616Z,60.61
2022-09-02T01:22:20.398Z,60.33
2022-09-02T01:24:48.443Z,60.78
2022-09-02T01:27:17.499Z,60.87
2022-09-02T01:29:45.929Z,60.91
2022-09-02T01:32:13.964Z,60.80
2022-09-02T01:34:41.804Z,61.00
2022-09-02T01:37:09.639Z,61.14
2022-09-02T01:39:38.751Z,61.33
2022-09-02T01:42:06.912Z,61.50
2022-09-02T01:44:37.588Z,61.74
2022-09-02T01:47:05.708Z,61.66
2022-09-02T01:49:35.939Z,61.92
2022-09-02T01:52:05.429Z,62.22
2022-09-02T01:54:34.636Z,62.13
2022-09-02T01:57:03.832Z,62.32
2022-09-02T01:59:31.810Z,62.39
2022-09-02T02:02:00.317Z,62.41
2022-09-02T02:04:28.942Z,62.64
2022-09-02T02:06:59.407Z,62.93
2022-09-02T02:09:27.546Z,63.08
2022-09-02T02:11:55.377Z,62.70
2022-09-02T02:14:24.780Z,63.20
2022-09-02T02:16:53.821Z,63.40
2022-09-02T02:19:21.557Z,63.52
2022-09-02T02:21:49.612Z,63.58
2022-09-02T02:24:17.484Z,63.50
2022-09-02T02:26:45.307Z,63.61
2022-09-02T02:29:13.695Z,64.02
2022-09-02T02:31:43.924Z,63.81
2022-09-02T02:34:13.116Z,63.83
2022-09-02T02:36:42.579Z,63.84
2022-09-02T02:39:12.098Z,64.03
2022-09-02T02:41:44.722Z,64.04
2022-09-02T02:44:13.299Z,63.98
2022-09-02T02:46:42.905Z,63.83
2022-09-02T02:49:11.200Z,64.08
2022-09-02T02:51:39.499Z,63.92
2022-09-02T02:54:07.528Z,63.94
2022-09-02T02:56:35.621Z,64.10
2022-09-02T02:59:04.938Z,64.03
2022-09-02T03:01:34.503Z,64.05
2022-09-02T03:04:04.273Z,63.82
2022-09-02T03:06:32.892Z,63.95
2022-09-02T03:09:00.900Z,63.87
2022-09-02T03:11:29.366Z,64.00
2022-09-02T03:13:59.233Z,63.97
2022-09-02T03:16:27.440Z,63.89
2022-09-02T03:18:55.586Z,64.13
2022-09-02T03:21:24.685Z,64.04
2022-09-02T03:23:52.536Z,64.44
2022-09-02T03:26:23.462Z,64.09
2022-09-02T03:28:56.670Z,64.23
2022-09-02T03:31:26.159Z,64.24
2022-09-02T03:33:55.134Z,64.33
2022-09-02T03:36:27.439Z,64.19
2022-09-02T03:38:57.019Z,64.38
2022-09-02T03:41:25.429Z,64.41
2022-09-02T03:43:55.364Z,63.97
2022-09-02T03:46:23.377Z,64.38
2022-09-02T03:48:51.783Z,64.39
2022-09-02T03:51:20.556Z,64.28
2022-09-02T03:53:50.635Z,64.47
2022-09-02T03:56:19.423Z,64.38
2022-09-02T03:58:50.360Z,64.53
2022-09-02T04:01:27.998Z,64.58
2022-09-02T04:03:58.717Z,64.74
2022-09-02T04:06:32.504Z,65.00
2022-09-02T04:09:03.234Z,65.06
2022-09-02T04:11:32.255Z,65.14
2022-09-02T04:14:00.798Z,65.33
2022-09-02T04:16:29.986Z,65.06
2022-09-02T04:19:05.872Z,65.36
2022-09-02T04:21:35.808Z,65.16
2022-09-02T04:24:06.360Z,65.12
2022-09-02T04:26:34.431Z,65.07
2022-09-02T04:29:02.738Z,65.34
2022-09-02T04:31:35.099Z,65.58
2022-09-02T04:34:04.892Z,65.77
2022-09-02T04:36:32.778Z,65.75
2022-09-02T04:39:09.110Z,65.74
2022-09-02T04:41:38.704Z,65.57
2022-09-02T04:44:09.751Z,65.52
2022-09-02T04:46:40.914Z,65.73
2022-09-02T04:49:13.415Z,65.67
2022-09-02T04:51:44.004Z,65.45
2022-09-02T04:54:13.700Z,65.47
2022-09-02T04:56:45.001Z,65.45
2022-09-02T04:59:14.227Z,65.08
2022-09-02T05:01:50.344Z,65.38
2022-09-02T05:04:22.543Z,65.33
2022-09-02T05:06:53.719Z,65.60
2022-09-02T05:09:23.507Z,65.66
2022-09-02T05:11:57.561Z,65.78
2022-09-02T05:14:28.418Z,65.54
2022-09-02T05:17:03.824Z,65.71
2022-09-02T05:19:35.868Z,65.32
2022-09-02T05:22:05.000Z,65.19
2022-09-02T05:24:38.496Z,64.90
2022-09-02T05:27:09.750Z,64.82
2022-09-02T05:29:38.069Z,64.58
2022-09-02T05:32:08.121Z,64.13
2022-09-02T05:34:37.406Z,63.50
2022-09-02T05:37:06.055Z,63.00
2022-09-02T05:39:36.285Z,62.15
2022-09-02T05:42:07.885Z,62.22
2022-09-02T05:44:39.004Z,61.70
2022-09-02T05:47:08.657Z,61.91
2022-09-02T05:49:36.549Z,61.90
2022-09-02T05:52:10.137Z,61.92
2022-09-02T05:54:42.051Z,61.56
2022-09-02T05:57:18.653Z,61.21
2022-09-02T05:59:56.819Z,60.89
2022-09-02T06:02:30.260Z,60.31
2022-09-02T06:04:58.206Z,59.80
2022-09-02T06:07:27.288Z,59.25
2022-09-02T06:09:58.208Z,58.38
2022-09-02T06:12:31.042Z,58.22
2022-09-02T06:14:59.994Z,57.97
2022-09-02T06:17:28.547Z,55.39
2022-09-02T06:19:57.579Z,52.68
2022-09-02T06:22:27.824Z,47.57
2022-09-02T06:24:56.912Z,43.60
2022-09-02T06:27:29.383Z,39.13
2022-09-02T06:29:57.364Z,36.47
2022-09-02T06:32:26.918Z,34.56
2022-09-02T06:35:01.066Z,32.55
2022-09-02T06:37:42.036Z,31.09
2022-09-02T06:40:14.972Z,28.82
2022-09-02T06:42:44.242Z,28.46
2022-09-02T06:45:24.157Z,26.67
2022-09-02T06:47:53.640Z,26.60
2022-09-02T06:50:22.019Z,24.80
2022-09-02T06:52:50.823Z,25.68
2022-09-02T06:55:19.542Z,26.99
2022-09-02T06:57:49.072Z,29.14
2022-09-02T07:00:18.428Z,31.38
2022-09-02T07:03:06.224Z,30.22
2022-09-02T07:05:34.563Z,30.24
2022-09-02T07:08:02.697Z,29.57
2022-09-02T07:10:30.655Z,27.72
2022-09-02T07:12:59.814Z,26.45
2022-09-02T07:15:27.592Z,26.99
2022-09-02T07:17:55.508Z,24.43
2022-09-02T07:20:29.633Z,23.11
2022-09-02T07:23:00.655Z,22.21
2022-09-02T07:25:31.943Z,20.92
2022-09-02T07:28:01.456Z,20.18
2022-09-02T07:30:33.294Z,19.42
2022-09-02T07:33:10.620Z,19.61
2022-09-02T07:35:39.875Z,17.61
2022-09-02T07:38:09.080Z,17.58
2022-09-02T07:40:39.858Z,15.74
2022-09-02T07:43:12.778Z,16.55
2022-09-02T07:45:43.768Z,15.38
2022-09-02T07:48:12.321Z,16.29
2022-09-02T07:50:40.667Z,16.54
2022-09-02T07:53:13.913Z,17.23
2022-09-02T07:55:42.044Z,16.07
2022-09-02T07:58:12.469Z,15.24
2022-09-02T08:00:44.613Z,13.75
2022-09-02T08:03:14.276Z,14.44
2022-09-02T08:05:47.991Z,13.98
2022-09-02T08:08:20.095Z,13.21
2022-09-02T08:10:49.393Z,13.50
2022-09-02T08:13:19.672Z,12.87
2022-09-02T08:15:50.900Z,11.48
2022-09-02T08:18:22.361Z,11.63
2022-09-02T08:20:50.643Z,12.56
2022-09-02T08:23:33.124Z,11.86
2022-09-02T08:26:05.467Z,12.38
2022-09-02T08:28:35.084Z,12.67
2022-09-02T08:31:06.510Z,11.97
2022-09-02T08:33:34.325Z,11.29
2022-09-02T08:36:04.422Z,12.23
2022-09-02T08:38:32.246Z,12.53
2022-09-02T08:41:00.917Z,11.81
2022-09-02T08:43:35.370Z,12.79
2022-09-02T08:46:06.458Z,13.66
2022-09-02T08:48:40.238Z,12.08
2022-09-02T08:51:11.063Z,11.69
2022-09-02T08:53:47.960Z,12.38
2022-09-02T08:56:18.613Z,12.51
2022-09-02T08:58:52.829Z,11.37
2022-09-02T09:01:35.059Z,11.67
2022-09-02T09:04:12.312Z,10.85
2022-09-02T09:06:50.246Z,10.50
2022-09-02T09:09:27.806Z,10.71
2022-09-02T09:12:06.342Z,10.13
2022-09-02T09:14:43.050Z,10.52
2022-09-02T09:17:19.351Z,9.71
2022-09-02T09:19:51.924Z,9.00
2022-09-02T09:22:21.379Z,10.00
2022-09-02T09:24:51.389Z,10.62
2022-09-02T09:27:21.232Z,10.43
2022-09-02T09:29:49.781Z,10.10
2022-09-02T09:32:27.148Z,10.05
2022-09-02T09:35:02.528Z,10.00
2022-09-02T09:37:36.348Z,9.66
2022-09-02T09:40:27.465Z,9.34
2022-09-02T09:42:57.733Z,9.22
2022-09-02T09:45:33.201Z,9.34
2022-09-02T09:48:23.502Z,10.31
2022-09-02T09:51:12.409Z,9.70
2022-09-02T09:53:40.873Z,10.19
2022-09-02T09:56:25.420Z,10.17
2022-09-02T09:58:53.360Z,9.87
2022-09-02T10:01:23.963Z,10.03
2022-09-02T10:03:55.903Z,9.30
2022-09-02T10:06:26.246Z,9.77
2022-09-02T10:08:56.985Z,10.58
2022-09-02T10:11:27.260Z,9.15
2022-09-02T10:14:00.786Z,8.34
2022-09-02T10:16:53.857Z,9.35
2022-09-02T10:19:30.400Z,9.56
2022-09-02T10:22:15.597Z,8.77
2022-09-02T10:25:02.340Z,9.77
2022-09-02T10:27:38.449Z,9.44
2022-09-02T10:30:20.075Z,9.08
2022-09-02T10:33:13.393Z,9.73
2022-09-02T10:35:45.014Z,9.62
2022-09-02T10:38:34.081Z,10.84
2022-09-02T10:41:13.817Z,8.43
2022-09-02T10:44:04.285Z,9.23
2022-09-02T10:46:41.214Z,8.33
2022-09-02T10:49:20.110Z,10.85
2022-09-02T10:51:56.363Z,9.87
2022-09-02T10:54:38.548Z,10.47
2022-09-02T10:57:11.950Z,9.23
2022-09-02T10:59:47.059Z,9.70
2022-09-02T11:02:20.614Z,9.66
2022-09-02T11:04:54.876Z,9.91
2022-09-02T11:07:31.115Z,10.18
2022-09-02T11:10:04.622Z,10.76
2022-09-02T11:12:36.998Z,11.68
2022-09-02T11:52:58.928Z,11.12
2022-09-02T11:55:33.317Z,10.86
2022-09-02T11:58:03.052Z,12.68
2022-09-02T12:00:34.703Z,11.22
2022-09-02T12:03:39.152Z,12.42
2022-09-02T12:09:12.169Z,17.11
2022-09-02T12:11:46.106Z,17.95
2022-09-02T12:14:47.473Z,18.66
2022-09-02T12:17:37.190Z,20.26
2022-09-02T12:20:07.523Z,19.16
2022-09-02T12:22:39.056Z,19.91
2022-09-02T12:25:42.305Z,19.89
2022-09-02T12:28:25.282Z,20.47
2022-09-02T12:31:21.652Z,20.72
2022-09-02T12:33:52.537Z,21.32
2022-09-02T12:36:46.725Z,21.58
2022-09-02T12:39:55.031Z,21.09
2022-09-02T12:42:31.198Z,21.78
2022-09-02T12:45:08.047Z,22.20
2022-09-02T12:47:48.905Z,22.27
2022-09-02T12:50:27.257Z,21.75
2022-09-02T12:53:23.497Z,22.35
2022-09-02T12:55:57.102Z,22.23
2022-09-02T12:58:28.971Z,24.46
2022-09-02T13:01:05.998Z,22.82
2022-09-02T13:04:03.927Z,24.27
2022-09-02T13:06:49.436Z,22.72
2022-09-02T13:09:46.110Z,22.34
2022-09-02T13:12:35.395Z,22.60
2022-09-02T13:15:24.148Z,22.33
2022-09-02T13:18:25.237Z,22.74
2022-09-02T13:21:14.597Z,23.26
2022-09-02T13:24:22.976Z,22.54
2022-09-02T13:27:29.734Z,22.50
2022-09-02T13:30:12.196Z,22.56
2022-09-02T13:32:40.308Z,23.23
2022-09-02T13:35:18.352Z,22.74
2022-09-02T13:37:59.567Z,22.96
2022-09-02T13:40:29.718Z,22.94
2022-09-02T13:43:01.454Z,23.44
2022-09-02T13:45:34.536Z,22.93
2022-09-02T13:48:08.543Z,24.18
2022-09-02T13:50:43.002Z,23.66
2022-09-02T13:56:17.541Z,23.63
2022-09-02T13:58:52.703Z,22.84
2022-09-02T14:01:29.392Z,23.64
2022-09-02T14:03:59.811Z,24.08
2022-09-02T14:06:31.453Z,24.00
2022-09-02T14:09:03.105Z,24.74
2022-09-02T14:11:41.729Z,23.87
2022-09-02T14:14:15.800Z,24.01
2022-09-02T14:16:51.692Z,23.86
2022-09-02T14:19:32.754Z,24.22
2022-09-02T14:22:05.860Z,24.61
2022-09-02T14:24:50.236Z,25.24
2022-09-02T14:27:21.570Z,24.09
2022-09-02T14:29:57.500Z,29.49
2022-09-02T14:32:29.171Z,25.20
2022-09-02T14:35:19.662Z,25.28
2022-09-02T14:37:57.690Z,24.93
2022-09-02T14:40:37.969Z,26.32
2022-09-02T14:43:12.689Z,26.08
2022-09-02T14:45:46.250Z,24.96
2022-09-02T14:48:23.263Z,24.78
2022-09-02T14:51:02.683Z,24.70
2022-09-02T14:53:37.448Z,24.22
2022-09-02T14:56:07.556Z,25.50
2022-09-02T14:58:48.271Z,25.21
2022-09-02T15:01:22.615Z,24.46
2022-09-02T15:03:54.808Z,24.93
2022-09-02T15:06:24.055Z,24.86
2022-09-02T15:09:04.787Z,25.50
2022-09-02T15:14:27.696Z,25.52
2022-09-02T15:16:59.378Z,25.64
2022-09-02T15:19:31.342Z,25.75
2022-09-02T15:22:06.483Z,25.50
2022-09-02T15:24:40.229Z,25.81
2022-09-02T15:27:11.704Z,25.36
2022-09-02T15:29:49.269Z,25.60
2022-09-02T15:32:26.622Z,25.60
2022-09-02T15:35:26.481Z,27.89
2022-09-02T15:38:07.786Z,25.01
2022-09-02T15:40:51.742Z,25.53
2022-09-02T15:43:28.628Z,25.69
2022-09-02T15:46:00.368Z,25.72
2022-09-02T15:48:32.949Z,25.68
2022-09-02T15:54:03.770Z,25.11
2022-09-02T15:56:34.089Z,25.80
2022-09-02T15:59:16.367Z,25.50
2022-09-02T16:01:49.706Z,26.77
2022-09-02T16:04:18.292Z,25.70
2022-09-02T16:06:52.412Z,26.22
2022-09-02T16:09:21.040Z,25.79
2022-09-02T16:11:54.472Z,25.72
2022-09-02T16:14:23.355Z,26.18
2022-09-02T16:16:52.496Z,25.12
2022-09-02T16:19:24.315Z,25.69
2022-09-02T16:21:55.420Z,25.88
2022-09-02T16:24:25.999Z,25.95
2022-09-02T16:26:54.413Z,25.38
2022-09-02T16:29:28.070Z,25.47
2022-09-02T16:32:14.320Z,26.02
2022-09-02T16:34:45.332Z,25.84
2022-09-02T16:37:14.700Z,25.65
2022-09-02T16:39:43.075Z,27.87
2022-09-02T16:42:11.005Z,25.74
2022-09-02T16:44:41.560Z,26.10
2022-09-02T16:47:14.082Z,29.19
2022-09-02T16:49:42.516Z,28.90
2022-09-02T16:52:10.582Z,27.57
2022-09-02T16:54:40.995Z,28.82
2022-09-02T16:57:13.127Z,26.70
2022-09-02T16:59:41.144Z,27.26
2022-09-02T17:02:09.358Z,26.51
2022-09-02T17:04:37.390Z,26.07
2022-09-02T17:07:05.557Z,26.63
2022-09-02T17:09:33.326Z,28.50
2022-09-02T17:12:02.912Z,27.04
2022-09-02T17:14:32.602Z,27.70
2022-09-02T17:17:00.571Z,27.63
2022-09-02T17:19:32.389Z,27.04
2022-09-02T17:22:00.696Z,30.11
2022-09-02T17:24:30.498Z,27.88
2022-09-02T17:27:00.183Z,30.47
2022-09-02T17:32:19.057Z,27.93
2022-09-02T17:34:46.910Z,28.46
2022-09-02T17:37:14.867Z,28.14
2022-09-02T17:39:42.730Z,28.34
2022-09-02T17:42:09.717Z,29.51
2022-09-02T17:44:40.506Z,30.97
2022-09-02T17:47:10.435Z,31.93
2022-09-02T17:49:41.247Z,32.52
2022-09-02T17:52:10.592Z,32.50
2022-09-02T17:54:41.156Z,33.34
2022-09-02T17:57:23.762Z,33.50
2022-09-02T18:00:09.207Z,33.92
2022-09-02T18:03:22.580Z,33.86
2022-09-02T18:05:59.440Z,35.19
2022-09-02T18:08:36.208Z,35.83
2022-09-02T18:11:06.652Z,36.91
2022-09-02T18:13:44.507Z,37.33
2022-09-02T18:16:32.177Z,37.75
2022-09-02T18:19:13.452Z,38.79
2022-09-02T18:22:00.748Z,38.56
2022-09-02T18:24:41.865Z,39.54
2022-09-02T18:27:15.380Z,40.49
2022-09-02T18:29:59.164Z,40.29
2022-09-02T18:32:42.420Z,40.40
2022-09-02T18:35:22.604Z,40.61
2022-09-02T18:38:02.083Z,41.45
2022-09-02T18:40:38.862Z,41.51
2022-09-02T18:43:19.512Z,41.83
2022-09-02T18:45:50.328Z,42.24
2022-09-02T18:48:23.254Z,42.54
2022-09-02T18:50:54.911Z,42.84
2022-09-02T18:53:25.767Z,43.86
2022-09-02T18:55:55.117Z,44.24
2022-09-02T18:58:34.178Z,44.41
2022-09-02T19:01:07.520Z,45.39
2022-09-02T19:03:38.172Z,45.11
2022-09-02T19:06:08.262Z,45.37
2022-09-02T19:08:37.990Z,45.43
2022-09-02T19:11:08.687Z,45.97
2022-09-02T19:13:46.395Z,45.80
2022-09-02T19:16:17.154Z,46.65
2022-09-02T19:18:46.605Z,46.23
2022-09-02T19:21:18.782Z,47.14
2022-09-02T19:23:47.994Z,47.24
2022-09-02T19:26:16.093Z,47.80
2022-09-02T19:28:46.800Z,48.00
2022-09-02T19:31:20.423Z,48.00
2022-09-02T19:33:52.583Z,47.86
2022-09-02T19:36:21.903Z,48.05
2022-09-02T19:38:49.712Z,47.92
2022-09-02T19:41:17.630Z,48.51
2022-09-02T19:43:45.449Z,48.56
2022-09-02T19:46:34.903Z,48.58
2022-09-02T19:49:02.784Z,48.69
2022-09-02T19:51:30.751Z,49.26
2022-09-02T19:54:00.146Z,49.52
2022-09-02T19:56:28.067Z,49.83
2022-09-02T19:58:56.506Z,50.15
2022-09-02T20:01:25.138Z,50.33
2022-09-02T20:03:53.876Z,50.41
2022-09-02T20:06:23.189Z,50.87
2022-09-02T20:08:51.706Z,50.61
2022-09-02T20:11:19.593Z,50.95
2022-09-02T20:13:50.791Z,50.75
2022-09-02T20:16:22.512Z,50.78
2022-09-02T20:18:52.882Z,51.28
2022-09-02T20:21:24.793Z,51.19
2022-09-02T20:23:53.759Z,51.37
2022-09-02T20:26:38.303Z,50.94
2022-09-02T20:29:28.380Z,51.84
2022-09-02T20:32:07.560Z,51.78
2022-09-02T20:34:46.556Z,52.11
2022-09-02T20:37:30.055Z,52.31
2022-09-02T20:40:21.801Z,52.38
2022-09-02T20:43:03.095Z,52.83
2022-09-02T20:45:39.153Z,53.25
2022-09-02T20:48:25.386Z,53.35
2022-09-02T20:51:00.984Z,53.42
2022-09-02T20:54:03.072Z,52.83
2022-09-02T20:56:37.604Z,53.39
2022-09-02T20:59:12.513Z,53.71
2022-09-02T21:01:44.903Z,53.58
2022-09-02T21:04:29.654Z,54.10
2022-09-02T21:07:02.249Z,53.96
2022-09-02T21:09:42.733Z,53.80
2022-09-02T21:12:19.582Z,54.57
2022-09-02T21:14:51.670Z,54.67
2022-09-02T21:17:39.290Z,54.33
2022-09-02T21:20:17.926Z,54.77
2022-09-02T21:22:52.692Z,54.66
2022-09-02T21:25:28.732Z,55.21
2022-09-02T21:28:03.376Z,55.08
2022-09-02T21:30:38.699Z,55.19
2022-09-02T21:33:09.826Z,55.88
2022-09-02T21:35:42.095Z,55.58
2022-09-02T21:38:15.523Z,55.83
2022-09-02T21:41:04.315Z,55.61
2022-09-02T21:43:55.975Z,55.95
2022-09-02T21:46:34.698Z,56.25
2022-09-02T21:49:13.314Z,56.64
2022-09-02T21:51:50.898Z,56.53
2022-09-02T21:54:35.226Z,56.63
2022-09-02T21:57:20.106Z,56.75
2022-09-02T22:00:06.936Z,56.98
2022-09-02T22:02:50.102Z,56.86
2022-09-02T22:05:30.524Z,57.17
2022-09-02T22:08:04.906Z,57.74
2022-09-02T22:10:40.452Z,57.46
2022-09-02T22:13:10.844Z,58.03
2022-09-02T22:15:58.315Z,57.85
2022-09-02T22:18:38.039Z,57.55
2022-09-02T22:21:17.146Z,57.58
2022-09-02T22:23:45.448Z,58.24
2022-09-02T22:26:35.542Z,57.78
2022-09-02T22:29:11.737Z,58.61
2022-09-02T22:31:45.294Z,58.53
2022-09-02T22:34:18.627Z,58.61
2022-09-02T22:36:56.319Z,59.03
2022-09-02T22:39:33.818Z,58.87
2022-09-02T22:42:10.664Z,58.84
2022-09-02T22:45:02.522Z,59.07
2022-09-02T22:47:52.084Z,59.21
2022-09-02T22:50:43.279Z,59.67
2022-09-02T22:53:12.933Z,59.51
2022-09-02T22:55:53.653Z,59.37
2022-09-02T22:58:37.235Z,59.56
2022-09-02T23:01:16.194Z,59.28
2022-09-02T23:03:55.357Z,59.81
2022-09-02T23:06:27.875Z,59.72
2022-09-02T23:08:57.351Z,59.88
2022-09-02T23:11:32.073Z,60.09
2022-09-02T23:14:12.240Z,59.98
2022-09-02T23:17:08.893Z,59.73
2022-09-02T23:19:56.273Z,59.91
2022-09-02T23:22:34.204Z,60.24
2022-09-02T23:25:18.739Z,60.38
2022-09-02T23:27:56.471Z,60.17
2022-09-02T23:30:24.502Z,60.40
2022-09-02T23:33:12.965Z,60.25
2022-09-02T23:35:48.152Z,60.23
2022-09-02T23:38:34.827Z,60.71
2022-09-02T23:41:08.213Z,60.75
2022-09-02T23:43:36.867Z,60.83
2022-09-02T23:46:20.063Z,60.96
2022-09-02T23:48:57.111Z,60.85
2022-09-02T23:51:33.489Z,60.82
2022-09-02T23:54:14.540Z,60.94
2022-09-02T23:56:57.451Z,60.91
2022-09-02T23:59:42.747Z,60.89
